Time Latitude Longitude Accuracy (66% radius in meters) Altitude (meters) Speed (km/hour) Bearing (degrees) Battery (%) GPS flag
06:44:33 57.204294 60.121052 12.864000320435 325.64599609375 1.1200000047684 178.69999694824 35 1 delete
06:44:23 57.204317 60.121063 11.791999816895 323.86096191406 0 0 35 1 delete
06:44:19 57.204313 60.121027 15.00800037384 320.3203125 0.83999997377396 173.30000305176 35 1 delete
06:44:18 57.204491 60.120969 23.583999633789 319.41693115234 0.37999999523163 338.60000610352 35 1 delete
06:44:12 57.204517 60.120920 32.159999847412 318.83666992188 0.15999999642372 117.69999694824 35 1 delete
06:44:01 57.204537 60.120863 26.800001144409 319.75622558594 0 0 35 1 delete
06:43:47 57.204537 60.120863 15.00800037384 322.93603515625 0 0 35 1 delete
06:43:36 57.204538 60.120850 24.656000137329 321.26928710938 0 0 35 1 delete
06:43:25 57.204539 60.120843 23.583999633789 320.19262695312 0 0 35 1 delete
06:43:14 57.204538 60.120843 12.864000320435 324.21997070312 0 0 35 1 delete
06:43:04 57.204538 60.120843 12.864000320435 324.07421875 0 0 35 1 delete
06:42:53 57.204538 60.120843 12.864000320435 323.70129394531 0 0 35 1 delete
06:42:42 57.204538 60.120843 15.00800037384 322.201171875 0 0 35 1 delete
06:42:32 57.204538 60.120844 8.576000213623 325.17376708984 0 0 35 1 delete
06:42:21 57.204536 60.120843 11.791999816895 322.17150878906 0 0 35 1 delete
06:42:10 57.204536 60.120843 9.6480007171631 322.14685058594 0 0 35 1 delete
06:41:46 57.204543 60.120855 9.6480007171631 328.09582519531 0.56000000238419 226.39999389648 35 1 delete
06:41:34 57.204553 60.120932 3.2160000801086 328.71331787109 1.1599999666214 351.60000610352 35 1 delete
06:41:25 57.204587 60.120919 3.2160000801086 334.25885009766 0 0 35 1 delete
06:41:22 57.204624 60.121132 3.2160000801086 334.09912109375 0 0 35 1 delete
06:41:14 57.204627 60.121109 4.2880001068115 334.13195800781 0.30000001192093 71.099998474121 35 1 delete
06:41:13 57.204571 60.120952 5.3600001335144 332.95617675781 1.289999961853 95.599998474121 35 1 delete
06:41:11 57.204640 60.121120 5.3600001335144 332.7353515625 0 0 35 1 delete
06:41:09 57.204645 60.121093 5.3600001335144 330.6064453125 1.3700000047684 51 35 1 delete
06:41:02 57.204608 60.120913 6.4320001602173 328.85833740234 1.3700000047684 60.599998474121 35 1 delete
06:41:00 57.204587 60.120843 5.3600001335144 326.82666015625 1.4700000286102 53.5 35 1 delete
06:40:58 57.204560 60.120761 5.3600001335144 325.59558105469 1.5 55.5 35 1 delete
06:40:54 57.204498 60.120579 4.2880001068115 322.5654296875 1.6100000143051 50.400001525879 35 1 delete
06:40:50 57.204448 60.120439 4.2880001068115 320.91784667969 1.6100000143051 82.199996948242 35 1 delete
06:40:48 57.204448 60.120354 4.2880001068115 319.99945068359 1.6799999475479 80.900001525879 35 1 delete
06:40:46 57.204446 60.120240 4.2880001068115 318.80718994141 1.7300000190735 80.400001525879 35 1 delete
06:40:42 57.204419 60.120071 3.2160000801086 318.24914550781 1.6399999856949 84.800003051758 35 1 delete
06:40:38 57.204399 60.119897 4.2880001068115 320.41772460938 1.710000038147 68.599998474121 35 1 delete
06:40:37 57.204390 60.119856 4.2880001068115 319.94995117188 1.6900000572205 63.599998474121 35 1 delete
06:40:34 57.204356 60.119751 5.3600001335144 321.84350585938 1.7799999713898 53.599998474121 35 1 delete
06:40:29 57.204290 60.119609 6.4320001602173 320.77001953125 1.6599999666214 56 35 1 delete
06:40:24 57.204244 60.119456 4.2880001068115 322.69262695312 1.6200000047684 51.599998474121 35 1 delete
06:40:17 57.204178 60.119294 4.2880001068115 322.80743408203 1.5800000429153 51.799999237061 35 1 delete
06:40:12 57.204132 60.119198 4.2880001068115 323.17712402344 1.5599999427795 39.900001525879 35 1 delete
06:40:10 57.204114 60.119163 4.2880001068115 322.4775390625 1.6499999761581 49.799999237061 35 1 delete
06:40:04 57.204048 60.119047 4.2880001068115 324.20629882812 1.7000000476837 30.89999961853 35 1 delete
06:40:00 57.204004 60.118988 4.2880001068115 324.25073242188 1.8400000333786 57.099998474121 35 1 delete
06:39:58 57.203966 60.118963 4.2880001068115 324.07165527344 1.8799999952316 13.89999961853 35 1 delete
06:39:51 57.203892 60.118844 3.2160000801086 325.81237792969 1.6200000047684 46.400001525879 35 1 delete
06:39:50 57.203884 60.118822 3.2160000801086 326.26220703125 0.62999999523163 60.900001525879 35 1 delete
06:39:42 57.203836 60.118695 3.2160000801086 325.00823974609 0.34999999403954 91.800003051758 35 1 delete
06:39:37 57.203846 60.118642 3.2160000801086 325.46606445312 0.40999999642372 83.900001525879 35 1 delete
06:39:27 57.203876 60.118537 3.2160000801086 324.79638671875 0.23000000417233 121.69999694824 35 1 delete
06:39:25 57.203879 60.118517 3.2160000801086 324.41870117188 0.40999999642372 113.69999694824 35 1 delete
06:39:14 57.203889 60.118399 4.2880001068115 322.46105957031 0.31999999284744 329.20001220703 35 1 delete